Adventure of The Seas — C6SA3 — position and weather

sailwx.info

Track history (hours):
 
Tides and Currents Weather Stations Pressure Air Temp Water Temp Dewpoint Dewpoint Depression Visibility Wind Speed Wind Dir Waves Ship Positions

Adventure of The Seas

Operator: Royal Caribbean Cruises Ltd

Last reported at 2014-Nov-25 07:04 UTC. Time now 2014-Nov-28 23:49 UTC.
Position N 17°47' W 063°17'.

MMSI: 311263000.

Date/timePositionNaut miles runAvg speedWind from/ knotsBaromVisibWave heightAir tempDewpointWater temp
2014-Nov-25 07:04N 17°47' W 063°17'610.9
2014-Nov-25 06:32N 17°49' W 063°23'1210.8
2014-Nov-25 05:26N 17°53' W 063°34'910.7
2014-Nov-25 04:33N 17°57' W 063°44'  
2014-Nov-22 00:10N 17°59' W 063°26'6 8.3
2014-Nov-21 23:29N 17°59' W 063°20'9 8.3
2014-Nov-21 22:27N 17°59' W 063°11'7 0.7
2014-Nov-21 11:30N 18°00' W 063°03'6 4.8
2014-Nov-21 10:21N 17°56' W 062°59'79 3.3
2014-Nov-20 10:26N 17°02' W 061°59'1213.9
2014-Nov-20 09:33N 16°50' W 062°01'1414.0
2014-Nov-20 08:33N 16°37' W 062°04'1414.0
2014-Nov-20 07:34N 16°23' W 062°06'  
Track history (hours):
 
Tides and Currents Weather Stations Pressure Air Temp Water Temp Dewpoint Dewpoint Depression Visibility Wind Speed Wind Dir Waves Ship Positions

Adventure of The Seas

Operator: Royal Caribbean Cruises Ltd

Last reported at 2014-Nov-25 07:04 UTC. Time now 2014-Nov-28 23:49 UTC.
Position N 17°47' W 063°17'.

MMSI: 311263000.

Date/timePositionNaut miles runAvg speedWind from/ knotsBaromVisibWave heightAir tempDewpointWater temp
2014-Nov-25 07:04N 17°47' W 063°17'610.9
2014-Nov-25 06:32N 17°49' W 063°23'1210.8
2014-Nov-25 05:26N 17°53' W 063°34'910.7
2014-Nov-25 04:33N 17°57' W 063°44'  
2014-Nov-22 00:10N 17°59' W 063°26'6 8.3
2014-Nov-21 23:29N 17°59' W 063°20'9 8.3
2014-Nov-21 22:27N 17°59' W 063°11'7 0.7
2014-Nov-21 11:30N 18°00' W 063°03'6 4.8
2014-Nov-21 10:21N 17°56' W 062°59'79 3.3
2014-Nov-20 10:26N 17°02' W 061°59'1213.9
2014-Nov-20 09:33N 16°50' W 062°01'1414.0
2014-Nov-20 08:33N 16°37' W 062°04'1414.0
2014-Nov-20 07:34N 16°23' W 062°06'  

Dump ship's entire track history